Time;durP1;ratioP1;P1;durP2;ratioP2;P2;SDS_P1;SDS_P2;PMS_P1;PMS_P2;Temp;Humidity;BMP_temperature;BMP_pressure;BME280_temperature;BME280_humidity;BME280_pressure;Samples;Min_cycle;Max_cycle;Signal;HPM_P1;HPM_P2
2021/07/21 00:00:50;;;;;;;6.60;4.25;;;16.80;99.90;;;;;;5085953;28;20087;-88
2021/07/21 00:03:16;;;;;;;6.55;4.15;;;16.80;99.90;;;;;;5100518;28;20035;-89
2021/07/21 00:05:43;;;;;;;6.28;4.03;;;16.80;99.90;;;;;;5066883;28;20036;-89
2021/07/21 00:08:11;;;;;;;7.03;4.40;;;16.80;99.90;;;;;;5079441;28;20013;-89
2021/07/21 00:10:37;;;;;;;7.90;4.43;;;16.80;99.90;;;;;;5067422;28;20024;-88
2021/07/21 00:18:48;;;;;;;7.00;4.10;;;16.70;99.90;;;;;;5065021;28;20064;-91
2021/07/21 00:21:16;;;;;;;5.22;3.35;;;16.70;99.90;;;;;;5062380;28;20495;-89
2021/07/21 00:23:48;;;;;;;6.70;4.30;;;16.70;99.90;;;;;;5072116;28;20043;-90
2021/07/21 00:26:14;;;;;;;5.47;3.42;;;16.70;99.90;;;;;;5063430;28;20063;-89
2021/07/21 00:28:41;;;;;;;6.25;4.28;;;16.70;99.90;;;;;;5065724;28;20104;-88
2021/07/21 00:31:15;;;;;;;6.22;3.95;;;16.70;99.90;;;;;;5069048;28;20029;-89
2021/07/21 00:33:41;;;;;;;5.78;3.83;;;16.70;99.90;;;;;;5061019;28;20032;-90
2021/07/21 00:36:07;;;;;;;6.30;3.97;;;16.60;99.90;;;;;;5080011;28;20028;-86
2021/07/21 00:38:33;;;;;;;5.32;3.80;;;16.60;99.90;;;;;;5085726;28;20016;-85
2021/07/21 00:41:00;;;;;;;6.25;3.83;;;16.50;99.90;;;;;;5092353;28;20017;-86
2021/07/21 00:43:29;;;;;;;7.03;4.38;;;16.40;99.90;;;;;;5075342;28;20021;-87
2021/07/21 00:45:55;;;;;;;5.90;3.80;;;16.40;99.90;;;;;;5075463;28;20052;-85
2021/07/21 00:48:21;;;;;;;8.43;4.47;;;16.30;99.90;;;;;;5065169;28;20025;-86
2021/07/21 00:50:46;;;;;;;7.38;4.20;;;16.30;99.90;;;;;;5051733;28;20029;-86
2021/07/21 00:53:15;;;;;;;8.13;4.47;;;16.20;99.90;;;;;;5072883;28;20037;-87
2021/07/21 00:55:42;;;;;;;6.45;4.50;;;16.20;99.90;;;;;;5078599;28;20024;-85
2021/07/21 00:58:11;;;;;;;6.65;4.22;;;16.30;99.90;;;;;;5064805;28;20456;-87
2021/07/21 01:00:37;;;;;;;5.85;3.75;;;16.30;99.90;;;;;;5071629;28;20148;-84
2021/07/21 01:03:03;;;;;;;6.60;3.97;;;16.30;99.90;;;;;;5072809;28;20021;-86
2021/07/21 01:05:32;;;;;;;6.72;4.53;;;16.30;99.90;;;;;;5063653;28;20044;-85
2021/07/21 01:07:59;;;;;;;6.10;4.05;;;16.30;99.90;;;;;;5062869;28;20404;-86
2021/07/21 01:10:27;;;;;;;5.22;3.80;;;16.30;99.90;;;;;;5056979;28;20033;-86
2021/07/21 01:13:16;;;;;;;7.05;4.55;;;16.30;99.90;;;;;;5067434;28;20044;-87
2021/07/21 01:15:45;;;;;;;7.05;4.20;;;16.30;99.90;;;;;;5070567;28;20028;-86
2021/07/21 01:18:18;;;;;;;7.65;4.22;;;16.30;99.90;;;;;;5069963;28;20116;-86
2021/07/21 01:21:02;;;;;;;6.18;3.72;;;16.30;99.90;;;;;;5069696;28;20048;-86
2021/07/21 01:23:47;;;;;;;6.00;3.90;;;16.20;99.90;;;;;;5066486;28;20044;-86
2021/07/21 01:26:22;;;;;;;6.85;3.85;;;16.20;99.90;;;;;;5069991;28;20032;-85
2021/07/21 01:28:52;;;;;;;6.25;4.20;;;16.20;99.90;;;;;;5067681;28;20156;-85
2021/07/21 01:31:26;;;;;;;7.20;3.97;;;16.20;99.90;;;;;;5066669;28;20481;-85
2021/07/21 01:33:55;;;;;;;6.53;3.85;;;16.20;99.90;;;;;;5068209;28;20480;-85
2021/07/21 01:36:28;;;;;;;5.72;3.60;;;16.20;99.90;;;;;;5070722;28;20039;-85
2021/07/21 01:38:56;;;;;;;6.28;3.95;;;16.10;99.90;;;;;;5067549;28;20045;-84
2021/07/21 01:41:25;;;;;;;6.05;3.97;;;16.10;99.90;;;;;;5074159;28;20032;-85
2021/07/21 01:44:00;;;;;;;5.32;3.53;;;16.10;99.90;;;;;;5060178;28;20562;-83
2021/07/21 01:46:30;;;;;;;5.05;3.33;;;16.10;99.90;;;;;;5078007;28;20049;-85
2021/07/21 01:48:59;;;;;;;6.68;3.95;;;16.10;99.90;;;;;;5075993;28;20031;-84
2021/07/21 01:51:28;;;;;;;5.93;4.32;;;16.10;99.90;;;;;;5077674;28;20032;-86
2021/07/21 01:53:55;;;;;;;6.80;4.85;;;16.00;99.90;;;;;;5061222;28;20039;-84
2021/07/21 01:56:28;;;;;;;6.22;3.78;;;16.00;99.90;;;;;;5068310;28;20017;-86
2021/07/21 01:58:55;;;;;;;6.10;4.18;;;16.10;99.90;;;;;;5065871;28;20055;-84
2021/07/21 02:01:26;;;;;;;6.43;4.15;;;16.00;99.90;;;;;;5043709;28;20033;-85
2021/07/21 02:03:56;;;;;;;6.10;3.88;;;16.00;99.90;;;;;;5072949;28;20381;-86
2021/07/21 02:06:24;;;;;;;6.95;4.45;;;16.10;99.90;;;;;;5063404;28;20036;-86
2021/07/21 02:08:53;;;;;;;7.18;4.20;;;16.00;99.90;;;;;;5048672;28;20386;-83
2021/07/21 02:11:21;;;;;;;8.57;4.65;;;16.00;99.90;;;;;;5071353;28;20388;-84
2021/07/21 02:13:49;;;;;;;7.38;4.38;;;16.00;99.90;;;;;;5053516;28;20037;-85
2021/07/21 02:16:15;;;;;;;6.53;4.53;;;16.00;99.90;;;;;;5071566;28;20020;-85
2021/07/21 02:18:43;;;;;;;6.72;4.07;;;16.00;99.90;;;;;;5046790;28;20017;-85
2021/07/21 02:21:10;;;;;;;6.70;4.43;;;16.00;99.90;;;;;;5062030;28;20065;-83
2021/07/21 02:23:36;;;;;;;7.22;4.75;;;15.90;99.90;;;;;;5055758;28;20043;-85
2021/07/21 02:26:03;;;;;;;7.53;4.85;;;15.90;99.90;;;;;;5067660;28;20056;-84
2021/07/21 02:28:32;;;;;;;8.05;4.30;;;15.90;99.90;;;;;;5086297;28;20029;-84
2021/07/21 02:31:07;;;;;;;7.07;4.65;;;15.80;99.90;;;;;;5068924;28;20115;-85
2021/07/21 02:33:44;;;;;;;6.88;4.03;;;15.90;99.90;;;;;;5062520;28;20424;-85
2021/07/21 02:36:11;;;;;;;6.50;4.38;;;15.80;99.90;;;;;;5053782;28;20064;-85
2021/07/21 02:38:38;;;;;;;6.50;4.30;;;15.80;99.90;;;;;;5064836;28;20468;-85
2021/07/21 02:41:05;;;;;;;6.55;4.13;;;15.80;99.90;;;;;;5062937;28;20087;-84
2021/07/21 02:43:32;;;;;;;7.28;4.60;;;15.80;99.90;;;;;;5072384;28;20036;-85
2021/07/21 02:45:57;;;;;;;6.43;4.00;;;15.70;99.90;;;;;;5061123;28;20512;-83
2021/07/21 02:48:25;;;;;;;5.97;4.32;;;15.70;99.90;;;;;;5077427;28;20060;-85
2021/07/21 02:50:57;;;;;;;7.03;4.38;;;15.70;99.90;;;;;;5077311;28;20032;-84
2021/07/21 02:53:31;;;;;;;6.88;4.07;;;15.70;99.90;;;;;;5060668;28;20029;-85
2021/07/21 02:56:04;;;;;;;6.57;4.07;;;15.60;99.90;;;;;;5072434;28;20384;-85
2021/07/21 02:58:54;;;;;;;7.38;3.88;;;15.60;99.90;;;;;;5065246;28;20037;-85
2021/07/21 03:01:22;;;;;;;6.18;4.00;;;15.60;99.90;;;;;;5075665;28;20015;-84
2021/07/21 03:03:50;;;;;;;8.18;4.10;;;15.50;99.90;;;;;;5059310;28;20055;-84
2021/07/21 03:06:19;;;;;;;6.38;4.18;;;15.50;99.90;;;;;;5075372;28;20039;-84
2021/07/21 03:08:48;;;;;;;6.25;3.55;;;15.50;99.90;;;;;;5066165;28;20061;-85
2021/07/21 03:11:17;;;;;;;7.13;4.25;;;15.50;99.90;;;;;;5071982;28;20350;-85
2021/07/21 03:13:48;;;;;;;6.60;4.28;;;15.40;99.90;;;;;;5057066;28;20040;-86
2021/07/21 03:16:20;;;;;;;6.00;3.95;;;15.40;99.90;;;;;;5069498;28;20031;-84
2021/07/21 03:18:50;;;;;;;6.40;4.30;;;15.40;99.90;;;;;;5083105;28;20024;-82
2021/07/21 03:21:19;;;;;;;6.47;4.30;;;15.40;99.90;;;;;;5081995;28;20198;-85
2021/07/21 03:24:06;;;;;;;7.15;4.18;;;15.40;99.90;;;;;;5060257;28;20055;-84
2021/07/21 03:26:35;;;;;;;7.05;4.38;;;15.50;99.90;;;;;;5074707;28;20033;-85
2021/07/21 03:29:02;;;;;;;6.60;4.53;;;15.40;99.90;;;;;;5046679;28;20111;-86
2021/07/21 03:31:28;;;;;;;8.23;4.45;;;15.50;99.90;;;;;;5073239;28;20038;-85
2021/07/21 03:34:11;;;;;;;7.65;4.90;;;15.50;99.90;;;;;;5039050;28;20029;-87
2021/07/21 03:36:45;;;;;;;6.75;4.30;;;15.50;99.90;;;;;;5064373;28;20064;-84
2021/07/21 03:39:11;;;;;;;;;;;15.40;99.90;;;;;;5062535;28;20025;-85
2021/07/21 03:41:37;;;;;;;7.50;4.00;;;15.30;99.90;;;;;;5073034;28;19904;-85
2021/07/21 03:44:08;;;;;;;10.50;4.55;;;15.40;99.90;;;;;;5071829;28;20556;-85
2021/07/21 03:46:40;;;;;;;6.65;4.03;;;15.40;99.90;;;;;;5055355;28;20040;-86
2021/07/21 03:49:14;;;;;;;6.57;4.40;;;15.40;99.90;;;;;;5084488;28;20020;-85
2021/07/21 03:51:46;;;;;;;8.43;4.63;;;15.30;99.90;;;;;;5075241;28;20031;-85
2021/07/21 03:54:18;;;;;;;6.40;3.95;;;15.30;99.90;;;;;;5070852;28;20695;-85
2021/07/21 03:56:45;;;;;;;6.63;3.88;;;15.30;99.90;;;;;;5056024;28;20116;-84
2021/07/21 03:59:16;;;;;;;7.43;4.53;;;15.30;99.90;;;;;;5050832;28;20029;-86
2021/07/21 04:01:44;;;;;;;7.95;4.28;;;15.30;99.90;;;;;;5057468;28;20377;-85
2021/07/21 04:04:15;;;;;;;6.80;4.32;;;15.30;99.90;;;;;;5070553;28;20029;-84
2021/07/21 04:06:41;;;;;;;7.07;4.65;;;15.30;99.90;;;;;;5080012;28;20044;-83
2021/07/21 04:09:12;;;;;;;7.20;4.75;;;15.30;99.90;;;;;;5061558;28;20017;-86
2021/07/21 04:11:41;;;;;;;6.88;4.45;;;15.40;99.90;;;;;;5074868;28;20024;-86
2021/07/21 04:14:11;;;;;;;8.75;5.38;;;15.40;99.90;;;;;;5074832;28;20004;-84
2021/07/21 04:16:49;;;;;;;7.45;4.68;;;15.40;99.90;;;;;;5091255;28;20013;-85
2021/07/21 04:19:15;;;;;;;8.20;4.60;;;15.40;99.90;;;;;;5070211;28;20033;-84
2021/07/21 04:21:46;;;;;;;6.93;4.53;;;15.40;99.90;;;;;;5103643;28;20054;-84
2021/07/21 04:24:13;;;;;;;7.68;5.00;;;15.40;99.90;;;;;;5081234;28;20407;-85
2021/07/21 04:26:48;;;;;;;8.57;5.22;;;15.50;99.90;;;;;;5071163;28;20024;-85
2021/07/21 04:29:16;;;;;;;7.72;4.82;;;15.50;99.90;;;;;;5089191;28;20115;-85
2021/07/21 04:31:47;;;;;;;7.18;4.35;;;15.50;99.90;;;;;;5077088;28;20029;-84
2021/07/21 04:34:14;;;;;;;7.43;5.03;;;15.50;99.90;;;;;;5080664;28;20028;-85
2021/07/21 04:36:41;;;;;;;8.05;4.95;;;15.50;99.90;;;;;;5069636;28;20029;-85
2021/07/21 04:39:12;;;;;;;8.55;5.10;;;15.50;99.90;;;;;;5088799;28;20024;-84
2021/07/21 04:41:39;;;;;;;8.25;4.82;;;15.60;99.90;;;;;;5061330;28;20031;-83
2021/07/21 04:44:06;;;;;;;7.93;4.93;;;15.60;99.90;;;;;;5079396;28;20048;-84
2021/07/21 04:46:33;;;;;;;8.63;5.03;;;15.60;99.90;;;;;;5070398;28;20034;-82
2021/07/21 04:48:59;;;;;;;8.48;5.20;;;15.60;99.90;;;;;;5070938;28;20036;-84
2021/07/21 04:51:25;;;;;;;7.25;4.50;;;15.70;99.90;;;;;;5065117;28;20029;-84
2021/07/21 04:53:56;;;;;;;8.00;5.50;;;15.80;99.90;;;;;;5078817;28;20032;-84
2021/07/21 04:56:22;;;;;;;7.53;4.75;;;15.80;99.90;;;;;;5068550;28;20103;-83
2021/07/21 04:58:48;;;;;;;7.50;5.00;;;15.80;99.90;;;;;;5079992;28;20052;-83
2021/07/21 05:01:15;;;;;;;8.57;5.70;;;15.80;99.90;;;;;;5069255;28;20029;-83
2021/07/21 05:03:44;;;;;;;8.38;5.07;;;15.90;99.90;;;;;;5068949;28;20147;-85
2021/07/21 05:06:14;;;;;;;7.35;4.70;;;15.90;99.90;;;;;;5071986;28;20565;-84
2021/07/21 05:08:41;;;;;;;7.60;5.40;;;15.90;99.90;;;;;;5069566;28;20025;-82
2021/07/21 05:11:08;;;;;;;9.15;5.68;;;16.00;99.90;;;;;;5064519;28;20029;-84
2021/07/21 05:13:40;;;;;;;9.07;5.70;;;16.00;99.90;;;;;;5075231;28;20045;-84
2021/07/21 05:16:09;;;;;;;8.55;5.68;;;16.10;99.90;;;;;;5074862;28;20146;-84
2021/07/21 05:18:38;;;;;;;9.35;6.25;;;16.20;99.90;;;;;;5083118;28;20028;-84
2021/07/21 05:21:06;;;;;;;9.68;5.80;;;16.20;99.90;;;;;;5064176;28;20507;-84
2021/07/21 05:23:38;;;;;;;8.93;5.95;;;16.30;99.90;;;;;;5041197;28;20031;-84
2021/07/21 05:26:05;;;;;;;10.95;6.72;;;16.40;99.90;;;;;;5064524;28;20500;-84
2021/07/21 05:28:35;;;;;;;10.55;6.55;;;16.50;99.90;;;;;;5070127;28;20045;-83
2021/07/21 05:31:06;;;;;;;9.70;6.25;;;16.60;99.90;;;;;;5086551;28;20052;-85
2021/07/21 05:33:34;;;;;;;8.10;5.78;;;16.70;99.90;;;;;;5060165;28;20040;-84
2021/07/21 05:36:02;;;;;;;10.23;6.03;;;16.90;99.90;;;;;;5074355;28;20036;-83
2021/07/21 05:38:29;;;;;;;9.63;6.05;;;17.00;99.90;;;;;;5067059;28;20016;-85
2021/07/21 05:40:54;;;;;;;9.27;5.88;;;17.10;99.90;;;;;;5066676;28;20152;-86
2021/07/21 05:43:29;;;;;;;8.20;5.82;;;17.30;99.90;;;;;;5041667;28;20040;-85
2021/07/21 05:45:55;;;;;;;9.23;6.28;;;17.30;99.90;;;;;;5077564;28;20032;-85
2021/07/21 05:48:23;;;;;;;10.82;6.72;;;17.50;99.90;;;;;;5070244;28;20400;-84
2021/07/21 05:50:50;;;;;;;8.05;5.57;;;17.50;99.90;;;;;;5066961;28;20041;-86
2021/07/21 05:53:18;;;;;;;10.60;6.30;;;17.60;99.90;;;;;;5045822;28;20025;-86
2021/07/21 05:55:48;;;;;;;8.25;5.53;;;17.60;99.90;;;;;;5075067;28;20029;-85
2021/07/21 05:58:20;;;;;;;9.32;6.38;;;17.70;99.90;;;;;;5057924;28;20025;-84
2021/07/21 06:00:47;;;;;;;11.38;6.95;;;17.70;99.90;;;;;;5071696;28;20028;-86
2021/07/21 06:03:18;;;;;;;10.38;6.63;;;17.80;99.90;;;;;;5096509;28;20085;-84
2021/07/21 06:05:55;;;;;;;10.05;6.35;;;17.90;99.90;;;;;;5063825;28;20029;-85
2021/07/21 06:08:25;;;;;;;10.60;6.60;;;17.90;99.90;;;;;;5064158;28;20028;-85
2021/07/21 06:10:52;;;;;;;9.93;7.00;;;17.90;99.90;;;;;;5065969;28;20029;-86
2021/07/21 06:13:25;;;;;;;9.48;6.78;;;18.00;99.90;;;;;;5072803;28;20055;-84
2021/07/21 06:15:52;;;;;;;10.13;6.03;;;18.10;99.90;;;;;;5063306;28;20082;-85
2021/07/21 06:18:22;;;;;;;9.32;6.50;;;18.10;99.90;;;;;;5071440;28;20662;-87
2021/07/21 06:20:49;;;;;;;9.95;6.45;;;18.20;99.90;;;;;;5068088;28;20087;-85
2021/07/21 06:23:15;;;;;;;10.40;6.55;;;18.30;99.90;;;;;;5046648;28;20040;-86
2021/07/21 06:25:41;;;;;;;11.00;7.43;;;18.40;99.90;;;;;;5077114;28;20035;-86
2021/07/21 06:28:09;;;;;;;10.65;7.35;;;18.50;99.90;;;;;;5056949;28;20065;-86
2021/07/21 06:30:35;;;;;;;10.70;7.10;;;18.60;99.90;;;;;;5067306;28;20108;-86
2021/07/21 06:33:03;;;;;;;10.82;7.25;;;18.60;99.90;;;;;;5067858;28;20052;-87
2021/07/21 06:35:35;;;;;;;11.98;6.97;;;18.70;99.90;;;;;;5059930;28;20029;-89
2021/07/21 06:38:05;;;;;;;9.73;6.60;;;18.80;99.90;;;;;;5061352;28;20111;-86
2021/07/21 06:40:32;;;;;;;11.90;7.07;;;19.00;99.90;;;;;;5085714;28;20075;-86
2021/07/21 06:42:59;;;;;;;12.10;7.75;;;19.00;99.90;;;;;;5076562;28;20035;-85
2021/07/21 06:46:04;;;;;;;13.05;8.85;;;19.10;99.90;;;;;;5048623;28;20079;-87
2021/07/21 06:49:10;;;;;;;13.88;8.98;;;19.10;99.90;;;;;;5065679;28;20028;-86
2021/07/21 06:51:43;;;;;;;12.68;7.90;;;19.20;99.90;;;;;;5078765;28;20024;-87
2021/07/21 06:54:11;;;;;;;;;;;19.20;99.90;;;;;;5062895;28;20029;-88
2021/07/21 06:56:53;;;;;;;10.23;5.90;;;19.30;99.90;;;;;;5068722;28;19909;-86
2021/07/21 06:59:27;;;;;;;11.75;6.75;;;19.40;99.90;;;;;;5072236;28;20012;-87
2021/07/21 07:01:54;;;;;;;11.20;6.93;;;19.50;99.90;;;;;;5043987;28;20056;-87
2021/07/21 07:04:31;;;;;;;12.20;8.35;;;19.60;99.90;;;;;;5071214;28;20021;-86
2021/07/21 07:07:23;;;;;;;13.73;9.68;;;19.60;99.90;;;;;;5070476;28;20096;-86
2021/07/21 07:10:06;;;;;;;11.95;8.15;;;19.60;99.90;;;;;;5060156;28;20036;-86
2021/07/21 07:12:55;;;;;;;11.82;6.97;;;19.70;99.90;;;;;;5068154;28;20036;-86
2021/07/21 07:15:26;;;;;;;12.18;7.25;;;19.70;99.90;;;;;;5071238;28;20059;-87
2021/07/21 07:17:54;;;;;;;10.55;6.50;;;19.80;99.90;;;;;;5058801;28;20116;-85
2021/07/21 07:20:26;;;;;;;10.48;6.60;;;19.90;99.90;;;;;;5067459;28;20045;-85
2021/07/21 07:23:16;;;;;;;10.05;6.38;;;20.10;99.90;;;;;;5084690;28;20094;-87
2021/07/21 07:26:08;;;;;;;11.45;8.05;;;20.10;99.90;;;;;;5054805;28;20098;-86
2021/07/21 07:28:41;;;;;;;10.65;7.10;;;20.10;99.90;;;;;;5061552;28;20485;-86
2021/07/21 07:31:20;;;;;;;11.43;7.57;;;20.10;99.90;;;;;;5058408;28;20055;-87
2021/07/21 07:34:01;;;;;;;12.68;8.23;;;20.10;99.90;;;;;;5073843;28;20024;-86
2021/07/21 07:36:55;;;;;;;11.35;7.05;;;20.10;99.90;;;;;;5066671;28;20025;-88
2021/07/21 07:39:22;;;;;;;10.25;6.70;;;20.30;99.90;;;;;;5083992;28;20510;-85
2021/07/21 07:42:00;;;;;;;10.40;7.38;;;20.30;99.90;;;;;;5059802;28;20032;-85
2021/07/21 07:44:37;;;;;;;12.65;8.30;;;20.40;99.90;;;;;;5068831;28;20025;-84
2021/07/21 07:47:06;;;;;;;10.93;7.60;;;20.40;99.90;;;;;;5074474;28;20067;-85
2021/07/21 07:49:42;;;;;;;11.05;7.68;;;20.40;99.90;;;;;;5081390;28;20107;-85
2021/07/21 07:52:11;;;;;;;10.38;7.15;;;20.50;99.90;;;;;;5075066;28;20130;-81
2021/07/21 07:54:39;;;;;;;9.52;6.53;;;20.50;99.90;;;;;;5089632;28;20056;-86
2021/07/21 07:57:12;;;;;;;10.38;6.18;;;20.60;99.90;;;;;;5077924;28;20067;-87
2021/07/21 07:59:47;;;;;;;9.75;6.15;;;20.70;99.90;;;;;;5076046;28;20045;-86
2021/07/21 08:02:28;;;;;;;12.00;7.40;;;20.80;99.90;;;;;;5054111;28;20018;-87
2021/07/21 08:04:56;;;;;;;12.85;7.93;;;20.90;99.90;;;;;;5062238;28;20032;-85
2021/07/21 08:07:25;;;;;;;11.27;8.25;;;20.90;99.90;;;;;;5052652;28;20106;-86
2021/07/21 08:10:14;;;;;;;12.55;9.43;;;20.90;99.90;;;;;;5088030;28;20395;-87
2021/07/21 08:13:24;;;;;;;12.73;8.45;;;20.80;99.90;;;;;;5046563;28;20063;-84
2021/07/21 08:16:44;;;;;;;14.27;9.32;;;20.70;99.90;;;;;;5041885;28;20039;-87
2021/07/21 08:19:18;;;;;;;16.52;9.80;;;20.70;99.90;;;;;;5084114;28;20056;-87
2021/07/21 08:22:06;;;;;;;15.32;11.00;;;20.60;99.90;;;;;;5054966;28;20757;-86
2021/07/21 08:24:59;;;;;;;12.65;8.65;;;20.60;99.90;;;;;;5061864;28;20356;-88
2021/07/21 08:27:30;;;;;;;17.77;10.70;;;20.60;99.90;;;;;;5058101;28;20325;-87
2021/07/21 08:32:51;;;;;;;12.07;8.57;;;20.70;99.90;;;;;;5073581;28;20021;-86
2021/07/21 08:35:24;;;;;;;12.32;7.93;;;20.80;99.90;;;;;;5063903;28;20040;-87
2021/07/21 08:38:03;;;;;;;11.48;7.35;;;21.00;99.90;;;;;;5052185;28;20040;-86
2021/07/21 08:40:47;;;;;;;;;;;;;;;;;;;;;
2021/07/21 08:44:00;;;;;;;11.85;7.88;;;21.20;99.90;;;;;;5059404;28;20420;-89
2021/07/21 08:46:55;;;;;;;;;;;;;;;;;;;;;
2021/07/21 08:49:33;;;;;;;8.57;6.28;;;21.50;99.90;;;;;;5063580;28;20024;-87
2021/07/21 08:52:02;;;;;;;7.85;4.97;;;21.60;99.90;;;;;;5059136;28;20031;-87
2021/07/21 08:54:44;;;;;;;8.82;5.68;;;21.80;99.90;;;;;;5063272;28;20388;-87
2021/07/21 08:57:14;;;;;;;7.32;4.60;;;21.90;99.90;;;;;;5066268;28;20038;-86
2021/07/21 08:59:47;;;;;;;6.93;4.55;;;22.00;99.90;;;;;;5062634;28;20029;-85
2021/07/21 09:02:25;;;;;;;7.18;4.85;;;22.00;99.90;;;;;;5060811;28;20052;-85
2021/07/21 09:05:03;;;;;;;7.55;5.43;;;22.00;99.90;;;;;;5047950;28;20041;-85
2021/07/21 09:07:43;;;;;;;7.15;4.18;;;22.00;99.90;;;;;;5048215;28;20112;-85
2021/07/21 09:10:18;;;;;;;9.38;4.07;;;22.10;99.90;;;;;;5042396;28;20033;-86
2021/07/21 09:12:50;;;;;;;5.93;3.78;;;22.30;99.90;;;;;;5039180;28;20059;-85
2021/07/21 09:16:19;;;;;;;;;;;;;;;;;;;;;
2021/07/21 09:19:05;;;;;;;7.18;5.10;;;22.60;99.90;;;;;;5055946;28;20120;-86
2021/07/21 09:21:33;;;;;;;8.60;5.15;;;22.70;99.90;;;;;;5057719;28;20049;-86
2021/07/21 09:24:33;;;;;;;6.88;4.47;;;22.70;99.90;;;;;;5071141;28;20037;-85
2021/07/21 09:27:27;;;;;;;8.27;3.90;;;22.80;99.90;;;;;;5071219;28;20025;-85
2021/07/21 09:30:02;;;;;;;5.95;3.90;;;22.90;99.40;;;;;;5055230;28;20032;-87
2021/07/21 09:33:07;;;;;;;6.30;3.50;;;22.90;99.30;;;;;;5056319;28;20028;-86
2021/07/21 09:36:13;;;;;;;;;;;;;;;;;;;;;
2021/07/21 09:38:56;;;;;;;6.75;4.07;;;23.00;99.10;;;;;;5064485;28;20021;-86
2021/07/21 09:42:01;;;;;;;6.53;3.97;;;23.30;99.30;;;;;;5063993;28;20032;-86
2021/07/21 09:44:56;;;;;;;5.75;4.05;;;24.50;98.60;;;;;;5065428;28;20032;-84
2021/07/21 09:48:01;;;;;;;5.93;3.78;;;25.90;97.20;;;;;;5070090;28;20028;-88
2021/07/21 09:51:04;;;;;;;5.32;3.35;;;26.90;96.40;;;;;;5063308;28;20024;-86
2021/07/21 09:53:50;;;;;;;4.85;3.22;;;28.20;95.10;;;;;;5057021;28;20033;-84
2021/07/21 09:56:31;;;;;;;7.20;3.67;;;28.90;94.20;;;;;;5072620;28;20025;-86
2021/07/21 09:59:33;;;;;;;5.72;3.90;;;29.40;92.70;;;;;;5069603;28;20086;-88
2021/07/21 10:02:32;;;;;;;6.13;3.50;;;29.70;91.70;;;;;;5057881;28;20040;-86
2021/07/21 10:05:06;;;;;;;6.25;3.35;;;29.20;91.90;;;;;;5079620;28;20086;-87
2021/07/21 10:07:51;;;;;;;10.68;3.40;;;28.80;91.80;;;;;;5075797;28;20013;-86
2021/07/21 10:10:33;;;;;;;7.10;3.45;;;28.60;91.80;;;;;;5082060;28;20025;-88
2021/07/21 10:13:08;;;;;;;7.18;3.95;;;29.10;91.30;;;;;;5077424;28;20026;-88
2021/07/21 10:15:47;;;;;;;5.35;3.80;;;29.80;90.10;;;;;;5070698;28;20622;-89
2021/07/21 10:19:00;;;;;;;5.85;3.42;;;30.50;89.70;;;;;;5084999;28;20177;-90
2021/07/21 10:21:42;;;;;;;5.50;4.00;;;31.20;87.10;;;;;;5062633;28;20057;-90
2021/07/21 10:28:28;;;;;;;;;;;;;;;;;;;;;
2021/07/21 10:31:33;;;;;;;;;;;;;;;;;;;;;
2021/07/21 10:34:33;;;;;;;13.88;4.45;;;32.40;78.90;;;;;;5057464;28;20028;-89
2021/07/21 10:37:22;;;;;;;15.68;4.70;;;32.60;78.00;;;;;;5074800;28;20049;-90
2021/07/21 10:46:34;;;;;;;;;;;;;;;;;;;;;
2021/07/21 10:49:49;;;;;;;5.82;3.90;;;33.40;72.20;;;;;;5036957;28;20104;-90
2021/07/21 10:55:41;;;;;;;;;;;33.90;70.40;;;;;;5037084;28;20552;-89
2021/07/21 11:01:38;;;;;;;4.97;3.88;;;34.00;68.90;;;;;;5073228;28;20027;-88
2021/07/21 11:08:04;;;;;;;;;;;;;;;;;;;;;
2021/07/21 11:10:34;;;;;;;5.53;4.15;;;33.70;66.00;;;;;;5071977;28;20123;-88
2021/07/21 11:13:15;;;;;;;5.38;4.30;;;33.00;66.30;;;;;;5072634;28;20106;-90
2021/07/21 11:15:53;;;;;;;5.30;4.20;;;32.50;66.30;;;;;;5060767;28;20441;-89
2021/07/21 11:18:50;;;;;;;5.25;3.70;;;32.40;66.50;;;;;;5070373;28;20433;-88
2021/07/21 11:21:28;;;;;;;6.00;4.07;;;32.60;66.00;;;;;;5056292;28;20037;-89
2021/07/21 11:24:19;;;;;;;7.80;4.45;;;32.10;65.80;;;;;;5072061;28;20124;-89
2021/07/21 11:27:05;;;;;;;6.03;4.10;;;31.40;65.80;;;;;;5062353;28;20469;-87
2021/07/21 11:30:03;;;;;;;5.55;3.92;;;30.90;66.10;;;;;;5074305;28;20076;-87
2021/07/21 11:33:04;;;;;;;;;;;;;;;;;;;;;
2021/07/21 11:35:53;;;;;;;6.53;4.85;;;30.10;67.10;;;;;;5080827;28;20036;-86
2021/07/21 11:38:47;;;;;;;5.40;4.18;;;29.90;67.20;;;;;;5059702;28;20490;-87
2021/07/21 11:41:55;;;;;;;5.70;4.45;;;29.90;67.20;;;;;;5074934;28;20036;-86
2021/07/21 11:44:40;;;;;;;6.30;4.60;;;29.80;67.20;;;;;;5064787;28;20123;-87
2021/07/21 11:47:39;;;;;;;6.70;4.88;;;29.70;67.60;;;;;;5037447;28;20041;-87
2021/07/21 11:50:24;;;;;;;;;;;;;;;;;;;;;
2021/07/21 11:53:17;;;;;;;6.78;4.70;;;30.00;67.70;;;;;;5066732;28;20140;-87
2021/07/21 11:56:39;;;;;;;;;;;;;;;;;;;;;
2021/07/21 11:59:27;;;;;;;5.43;4.22;;;32.10;65.80;;;;;;5016971;28;20128;-88
2021/07/21 12:06:30;;;;;;;;;;;;;;;;;;;;;
2021/07/21 12:15:32;;;;;;;5.50;4.13;;;32.30;63.10;;;;;;5023276;28;20041;-85
2021/07/21 12:18:10;;;;;;;6.68;4.60;;;31.80;63.40;;;;;;5058513;28;20028;-86
2021/07/21 12:20:39;;;;;;;5.95;4.28;;;31.40;63.50;;;;;;5063280;28;20036;-85
2021/07/21 12:23:30;;;;;;;5.95;4.38;;;31.00;64.10;;;;;;5069875;28;20056;-85
2021/07/21 12:26:24;;;;;;;;;;;;;;;;;;;;;
2021/07/21 12:29:10;;;;;;;6.22;4.68;;;30.30;64.40;;;;;;5065399;28;20123;-87
2021/07/21 12:31:45;;;;;;;7.18;5.10;;;29.90;65.00;;;;;;5053712;28;20070;-86
2021/07/21 12:34:30;;;;;;;6.30;4.28;;;29.60;64.50;;;;;;5068141;28;20082;-87
2021/07/21 12:37:17;;;;;;;5.70;4.50;;;29.60;65.00;;;;;;5068340;28;20044;-87
2021/07/21 12:40:10;;;;;;;6.68;4.82;;;30.00;65.00;;;;;;5109111;28;20119;-88
2021/07/21 12:42:50;;;;;;;;;;;;;;;;;;;;;
2021/07/21 12:46:00;;;;;;;;;;;;;;;;;;;;;
2021/07/21 12:48:46;;;;;;;;;;;;;;;;;;;;;
2021/07/21 12:51:21;;;;;;;7.38;5.22;;;31.90;61.80;;;;;;5065068;28;20092;-87
2021/07/21 12:54:00;;;;;;;7.55;4.82;;;31.50;60.90;;;;;;5074206;28;20542;-86
2021/07/21 12:57:00;;;;;;;5.50;4.20;;;31.00;62.10;;;;;;5065925;28;20103;-85
2021/07/21 12:59:37;;;;;;;5.78;4.50;;;31.10;62.50;;;;;;5061273;28;20036;-87
2021/07/21 13:02:41;;;;;;;5.32;4.10;;;31.80;62.20;;;;;;5068059;28;20031;-85
2021/07/21 13:09:12;;;;;;;6.10;4.60;;;32.90;61.20;;;;;;5051178;28;20057;-87
2021/07/21 13:15:06;;;;;;;6.97;4.80;;;32.70;60.90;;;;;;5049379;28;20025;-86
2021/07/21 13:24:35;;;;;;;6.03;4.93;;;32.20;60.70;;;;;;5006663;28;20054;-83
2021/07/21 13:27:13;;;;;;;6.05;4.65;;;31.90;60.90;;;;;;5064507;28;20036;-84
2021/07/21 13:30:10;;;;;;;;;;;;;;;;;;;;;
2021/07/21 13:32:58;;;;;;;6.47;5.00;;;32.60;61.20;;;;;;5064989;28;20417;-84
2021/07/21 13:35:59;;;;;;;6.05;4.97;;;32.30;61.00;;;;;;5074666;28;20043;-86
2021/07/21 13:38:58;;;;;;;6.72;4.97;;;31.90;61.60;;;;;;5079987;28;20084;-84
2021/07/21 13:41:40;;;;;;;6.90;4.32;;;31.30;62.20;;;;;;5056395;28;20043;-85
2021/07/21 13:44:08;;;;;;;6.68;4.43;;;30.90;63.20;;;;;;5064033;28;20465;-85
2021/07/21 13:46:59;;;;;;;;;;;;;;;;;;;;;
2021/07/21 13:49:57;;;;;;;8.73;5.80;;;30.20;64.40;;;;;;5062448;28;20447;-85
2021/07/21 13:52:26;;;;;;;6.75;5.22;;;29.90;65.20;;;;;;5059272;28;20061;-86
2021/07/21 13:54:54;;;;;;;7.95;5.90;;;29.70;65.20;;;;;;5062200;28;20064;-85
2021/07/21 14:00:45;;;;;;;6.07;5.03;;;30.00;65.50;;;;;;5038648;28;20036;-85
2021/07/21 14:03:35;;;;;;;;;;;;;;;;;;;;;
2021/07/21 14:06:14;;;;;;;6.13;5.05;;;31.80;63.00;;;;;;5067185;28;20036;-85
2021/07/21 14:09:02;;;;;;;6.35;5.47;;;32.10;62.70;;;;;;5065571;28;20074;-84
2021/07/21 14:11:50;;;;;;;6.63;5.30;;;31.90;63.00;;;;;;5076066;28;20040;-85
2021/07/21 14:14:40;;;;;;;;;;;;;;;;;;;;;
2021/07/21 14:17:12;;;;;;;6.90;5.28;;;31.30;63.20;;;;;;5070655;28;20028;-87
2021/07/21 14:19:48;;;;;;;;;;;;;;;;;;;;;
2021/07/21 14:23:10;;;;;;;;;;;;;;;;;;;;;
2021/07/21 14:25:56;;;;;;;6.35;5.13;;;30.90;63.50;;;;;;5066777;28;20098;-84
2021/07/21 14:28:34;;;;;;;7.25;5.18;;;30.70;63.60;;;;;;5060380;28;20028;-84
2021/07/21 14:31:24;;;;;;;8.07;4.95;;;30.40;63.80;;;;;;5066157;28;20144;-85
2021/07/21 14:34:20;;;;;;;6.55;5.03;;;30.20;64.00;;;;;;5055961;28;20040;-86
2021/07/21 14:37:09;;;;;;;;;;;;;;;;;;;;;
2021/07/21 14:39:38;;;;;;;6.07;4.75;;;29.70;64.30;;;;;;5068868;28;20094;-85
2021/07/21 14:42:28;;;;;;;6.88;5.20;;;29.50;64.70;;;;;;5072286;28;20112;-87
2021/07/21 14:45:13;;;;;;;6.40;4.93;;;29.40;65.30;;;;;;5067598;28;20033;-85
2021/07/21 14:48:09;;;;;;;5.80;4.70;;;29.20;65.90;;;;;;5058196;28;20028;-86
2021/07/21 14:50:45;;;;;;;6.30;4.88;;;29.10;66.40;;;;;;5066680;28;20033;-87
2021/07/21 14:53:30;;;;;;;7.68;4.28;;;28.80;67.20;;;;;;5067923;28;20020;-86
2021/07/21 14:55:58;;;;;;;6.13;4.38;;;28.70;66.90;;;;;;5042564;28;20067;-86
2021/07/21 14:58:25;;;;;;;8.25;5.97;;;28.60;66.90;;;;;;5068231;28;20048;-86
2021/07/21 15:01:02;;;;;;;8.63;6.05;;;28.50;67.00;;;;;;5070294;28;20095;-86
2021/07/21 15:03:34;;;;;;;9.05;6.25;;;28.50;67.10;;;;;;5070294;28;20051;-86